Airfield :
LOGIN :

Register | Disclaimer

   EN    FR    IT 

 










Legend :    VFR   Marginal VFR   IFR   Intensive IFR   Very Intensive IFR
Visi :
Ceiling :
>= 8 km
>= 3000ft
5 to 8 km
1000 to 3000 ft
1500m to 5 km
500 to 1000 ft
800 to 1500m
200 to 500 ft
< 800m
< 200 ft
Symbols :   Thunderstorms  Fog  Heavy snow  Heavy precipitations  Wind > 20 kt
SIGMETs :     Misc.  Thunderstorms  Icing  Turbulence  Mountain Waves  Volcanic Ashes






- Airport Elevation : 157 ft
- IATA code : SXF


EDDB - Berlin Schönefeld

CURRENT METAR :
  • 220850Z AUTO 27014KT 9999 -RA BKN011 16/15 Q1010 BECMG SCT015

EXPIRED METARs :
  • 220820Z AUTO 28013KT 9999 -RA SCT010 BKN015 16/15 Q1010 RERA BECMG BKN015
  • 220750Z AUTO 27015KT 9000 RA SCT007 BKN011 BKN020 15/15 Q1009 BECMG NSW
  • 220720Z AUTO 28012KT 8000 RA SCT008 BKN017 BKN028 16/15 Q1009 BECMG NSW
  • 220650Z AUTO 26014KT 2300 +SHRA BR FEW006 BKN032 OVC038 FEW///TCU 16/16 Q1008 BECMG 8000 NSW BKN012
  • 220620Z AUTO 29010KT 9999 SHRA SCT016 BKN021 OVC027 FEW///TCU 18/15 Q1008 TEMPO SHRA
  • 220550Z AUTO 28009KT 9999 FEW012 BKN020 OVC025 18/15 Q1008 TEMPO RA
  • 220520Z AUTO 29008KT 250V330 9999 SCT015 BKN021 19/16 Q1008 NOSIG
  • 220450Z AUTO 27007KT 9999 BKN016 BKN038 19/17 Q1008 NOSIG
  • 220420Z AUTO 27006KT 9999 SCT017 19/17 Q1007

TAF AMD TAF EDDB
Valid from the 22 at 06:00 until the 23 at 06:00 UTC


220640Z 2206/2306 26012KT CAVOK
PROB30
TEMPO 2206/2208 2500 RA SCT006 BKN014
BECMG 2207/2209 27015G25KT
BECMG 2217/2219 28007KT



MET'MAP, your aeronautical weather chart ! - Copyright ORBIFLY December 2007 - Disclaimer

ORBIFLY MET'MAP TEAM :

Programming & Development : Alexandra Zaïnal
Original concept : Baudouin d'Aumeries
Technical & hardware support : Manuel Goepfert
Assistance : Marc-Olivier Méhu




SOURCES & CREDITS :

   NOAA